createdAt,value
2024-03-10T00:00:21.668Z,23.10
2024-03-10T00:02:48.685Z,20.77
2024-03-10T00:05:15.875Z,19.52
2024-03-10T00:07:43.833Z,19.50
2024-03-10T00:10:11.628Z,22.02
2024-03-10T00:12:38.453Z,21.75
2024-03-10T00:15:05.750Z,21.52
2024-03-10T00:17:32.603Z,19.35
2024-03-10T00:19:59.630Z,21.60
2024-03-10T00:22:26.530Z,20.23
2024-03-10T00:24:53.737Z,19.83
2024-03-10T00:27:20.596Z,19.95
2024-03-10T00:29:47.406Z,18.88
2024-03-10T00:32:14.472Z,20.65
2024-03-10T00:34:41.404Z,23.67
2024-03-10T00:37:08.265Z,20.95
2024-03-10T00:39:35.343Z,24.58
2024-03-10T00:42:02.210Z,20.45
2024-03-10T00:44:31.853Z,22.17
2024-03-10T00:46:58.709Z,19.70
2024-03-10T00:49:25.811Z,22.02
2024-03-10T00:51:53.349Z,19.10
2024-03-10T00:54:20.244Z,21.33
2024-03-10T00:56:47.278Z,18.83
2024-03-10T00:59:14.071Z,19.27
2024-03-10T01:01:40.909Z,19.52
2024-03-10T01:04:07.837Z,21.40
2024-03-10T01:06:34.976Z,22.08
2024-03-10T01:09:01.813Z,22.00
2024-03-10T01:11:29.196Z,21.40
2024-03-10T01:13:56.141Z,19.17
2024-03-10T01:16:23.022Z,19.00
2024-03-10T01:18:52.406Z,20.25
2024-03-10T01:21:19.567Z,20.40
2024-03-10T01:23:47.173Z,20.23
2024-03-10T01:26:14.310Z,19.30
2024-03-10T01:28:41.212Z,21.10
2024-03-10T01:31:11.003Z,21.92
2024-03-10T01:33:37.972Z,20.52
2024-03-10T01:36:05.876Z,20.88
2024-03-10T01:38:32.804Z,19.83
2024-03-10T01:40:59.946Z,19.88
2024-03-10T01:43:26.969Z,23.75
2024-03-10T01:46:02.013Z,19.02
2024-03-10T01:48:28.790Z,21.65
2024-03-10T01:50:55.689Z,23.85
2024-03-10T01:53:22.993Z,22.13
2024-03-10T01:55:50.145Z,23.02
2024-03-10T01:58:16.968Z,20.33
2024-03-10T02:00:46.150Z,22.52
2024-03-10T02:03:13.996Z,20.35
2024-03-10T02:05:41.205Z,18.77
2024-03-10T02:08:08.010Z,19.95
2024-03-10T02:10:35.503Z,22.33
2024-03-10T02:13:02.365Z,21.98
2024-03-10T02:15:29.197Z,20.83
2024-03-10T02:17:57.924Z,19.05
2024-03-10T02:20:27.205Z,21.35
2024-03-10T02:22:54.086Z,20.63
2024-03-10T02:25:25.441Z,22.27
2024-03-10T02:27:54.379Z,20.98
2024-03-10T02:30:30.999Z,19.17
2024-03-10T02:33:16.340Z,21.08
2024-03-10T02:36:01.982Z,18.00
2024-03-10T02:38:47.288Z,20.83
2024-03-10T02:41:32.846Z,18.02
2024-03-10T02:44:28.828Z,19.77
2024-03-10T02:47:14.377Z,20.58
2024-03-10T02:49:42.399Z,20.80
2024-03-10T02:52:09.865Z,17.05
2024-03-10T02:54:40.071Z,18.63
2024-03-10T02:57:07.720Z,18.20
2024-03-10T02:59:34.495Z,20.65
2024-03-10T03:02:02.079Z,20.88
2024-03-10T03:04:29.717Z,18.20
2024-03-10T03:06:57.170Z,18.10
2024-03-10T03:09:24.781Z,19.08
2024-03-10T03:11:51.587Z,20.05
2024-03-10T03:14:19.323Z,20.30
2024-03-10T03:16:46.633Z,17.92
2024-03-10T03:19:14.862Z,19.63
2024-03-10T03:21:41.821Z,21.35
2024-03-10T03:24:09.377Z,18.38
2024-03-10T03:26:39.701Z,19.00
2024-03-10T03:29:06.665Z,19.85
2024-03-10T03:31:33.469Z,20.52
2024-03-10T03:34:00.500Z,18.52
2024-03-10T03:36:27.256Z,19.27
2024-03-10T03:38:54.080Z,18.80
2024-03-10T03:41:21.289Z,15.70
2024-03-10T03:43:49.197Z,18.45
2024-03-10T03:46:15.996Z,15.43
2024-03-10T03:48:42.782Z,17.75
2024-03-10T03:55:15.560Z,16.58
2024-03-10T03:57:42.522Z,20.90
2024-03-10T04:00:13.846Z,17.65
2024-03-10T04:02:40.725Z,18.02
2024-03-10T04:05:08.624Z,16.05
2024-03-10T04:07:35.702Z,19.75
2024-03-10T04:10:02.464Z,18.02
2024-03-10T04:12:29.819Z,19.90
2024-03-10T04:14:57.265Z,19.58
2024-03-10T04:17:24.192Z,18.65
2024-03-10T04:19:51.018Z,18.00
2024-03-10T04:22:20.480Z,16.67
2024-03-10T04:24:49.464Z,16.15
2024-03-10T04:27:16.595Z,19.73
2024-03-10T04:29:43.328Z,21.38
2024-03-10T04:32:10.172Z,20.05
2024-03-10T04:34:39.780Z,18.80
2024-03-10T04:37:10.437Z,18.02
2024-03-10T04:39:38.332Z,16.70
2024-03-10T04:42:05.357Z,18.83
2024-03-10T04:44:32.209Z,16.95
2024-03-10T04:46:59.133Z,19.02
2024-03-10T04:49:27.187Z,19.77
2024-03-10T04:51:54.384Z,20.40
2024-03-10T04:54:21.867Z,19.05
2024-03-10T04:56:48.772Z,17.33
2024-03-10T04:59:15.604Z,17.98
2024-03-10T05:01:42.910Z,19.52
2024-03-10T05:04:10.499Z,19.67
2024-03-10T05:06:38.462Z,16.90
2024-03-10T05:09:05.777Z,18.90
2024-03-10T05:11:32.643Z,19.45
2024-03-10T05:14:00.199Z,17.60
2024-03-10T05:16:27.535Z,19.40
2024-03-10T05:18:55.789Z,16.88
2024-03-10T05:21:22.957Z,19.13
2024-03-10T05:23:49.746Z,18.50
2024-03-10T05:26:18.096Z,20.85
2024-03-10T05:28:45.203Z,18.67
2024-03-10T05:31:32.705Z,18.50
2024-03-10T05:34:00.948Z,17.90
2024-03-10T05:36:28.577Z,21.95
2024-03-10T05:38:55.999Z,20.63
2024-03-10T05:41:23.378Z,18.80
2024-03-10T05:43:50.733Z,20.13
2024-03-10T05:46:17.642Z,19.90
2024-03-10T05:48:46.750Z,18.85
2024-03-10T05:51:14.819Z,20.20
2024-03-10T05:53:42.222Z,22.42
2024-03-10T05:56:11.206Z,18.65
2024-03-10T05:58:41.012Z,20.80
2024-03-10T06:01:09.399Z,21.80
2024-03-10T06:03:36.570Z,19.38
2024-03-10T06:06:03.703Z,20.63
2024-03-10T06:08:30.786Z,21.17
2024-03-10T06:10:59.004Z,18.55
2024-03-10T06:13:26.174Z,20.15
2024-03-10T06:15:53.961Z,19.35
2024-03-10T06:18:23.054Z,22.02
2024-03-10T06:21:08.815Z,19.90
2024-03-10T06:23:55.049Z,23.08
2024-03-10T06:26:23.184Z,20.27
2024-03-10T06:28:51.437Z,22.60
2024-03-10T06:31:21.918Z,20.48
2024-03-10T06:33:51.903Z,20.42
2024-03-10T06:36:19.082Z,21.38
2024-03-10T06:38:46.403Z,19.98
2024-03-10T06:41:13.496Z,22.90
2024-03-10T06:43:40.348Z,21.20
2024-03-10T06:46:10.398Z,19.58
2024-03-10T06:48:37.814Z,20.67
2024-03-10T06:51:07.306Z,20.92
2024-03-10T06:53:34.538Z,18.70
2024-03-10T06:56:02.090Z,18.23
2024-03-10T06:58:30.829Z,20.20
2024-03-10T07:00:59.775Z,20.42
2024-03-10T07:03:27.048Z,19.02
2024-03-10T07:05:55.940Z,18.35
2024-03-10T07:08:23.457Z,19.60
2024-03-10T07:10:50.492Z,22.38
2024-03-10T07:13:19.683Z,18.73
2024-03-10T07:15:50.325Z,20.30
2024-03-10T07:18:17.224Z,19.73
2024-03-10T07:20:45.373Z,20.00
2024-03-10T07:23:13.441Z,22.10
2024-03-10T07:25:40.387Z,19.92
2024-03-10T07:28:07.133Z,19.48
2024-03-10T07:30:35.094Z,18.13
2024-03-10T07:33:02.898Z,22.52
2024-03-10T07:35:29.944Z,22.08
2024-03-10T07:37:56.998Z,21.58
2024-03-10T07:40:25.096Z,20.80
2024-03-10T07:42:51.941Z,22.52
2024-03-10T07:45:18.828Z,20.63
2024-03-10T07:47:49.593Z,22.55
2024-03-10T07:50:18.202Z,20.13
2024-03-10T07:52:47.409Z,19.65
2024-03-10T07:55:14.250Z,21.60
2024-03-10T07:57:41.377Z,20.40
2024-03-10T08:00:21.387Z,19.33
2024-03-10T08:02:48.210Z,18.58
2024-03-10T08:05:15.578Z,19.58
2024-03-10T08:07:46.127Z,18.95
2024-03-10T08:10:15.275Z,18.45
2024-03-10T08:12:46.694Z,18.80
2024-03-10T08:15:14.722Z,21.17
2024-03-10T08:17:42.841Z,18.77
2024-03-10T08:20:15.257Z,20.50
2024-03-10T08:22:43.610Z,20.17
2024-03-10T08:25:10.900Z,23.10
2024-03-10T08:27:38.048Z,18.17
2024-03-10T08:30:06.242Z,22.83
2024-03-10T08:32:34.566Z,18.85
2024-03-10T08:35:01.475Z,18.98
2024-03-10T08:37:29.197Z,19.27
2024-03-10T08:39:56.141Z,17.20
2024-03-10T08:42:26.024Z,20.58
2024-03-10T08:44:52.934Z,20.50
2024-03-10T08:47:20.016Z,21.30
2024-03-10T08:49:47.388Z,21.23
2024-03-10T08:52:14.222Z,21.08
2024-03-10T08:54:41.263Z,21.85
2024-03-10T08:57:10.387Z,22.27
2024-03-10T08:59:37.482Z,22.05
2024-03-10T09:02:04.569Z,19.85
2024-03-10T09:04:31.709Z,21.05
2024-03-10T09:06:58.527Z,18.50
2024-03-10T09:09:25.577Z,21.38
2024-03-10T09:11:53.121Z,19.02
2024-03-10T09:14:20.384Z,23.02
2024-03-10T09:16:47.292Z,20.45
2024-03-10T09:19:17.501Z,18.45
2024-03-10T09:21:45.482Z,20.38
2024-03-10T09:24:15.905Z,20.45
2024-03-10T09:26:43.128Z,17.55
2024-03-10T09:29:10.794Z,21.83
2024-03-10T09:31:41.141Z,22.38
2024-03-10T09:34:08.117Z,20.35
2024-03-10T09:36:34.958Z,18.20
2024-03-10T09:39:01.791Z,19.85
2024-03-10T09:41:30.940Z,18.55
2024-03-10T09:43:58.751Z,19.52
2024-03-10T09:46:25.641Z,20.00
2024-03-10T09:48:52.565Z,18.58
2024-03-10T09:51:20.524Z,20.75
2024-03-10T09:53:48.299Z,20.13
2024-03-10T09:56:15.785Z,20.67
2024-03-10T09:58:51.939Z,19.17
2024-03-10T10:01:20.115Z,19.08
2024-03-10T10:03:51.511Z,19.00
2024-03-10T10:06:21.598Z,20.42
2024-03-10T10:08:55.759Z,19.30
2024-03-10T10:11:26.214Z,18.88
2024-03-10T10:14:16.024Z,19.17
2024-03-10T10:16:57.507Z,18.67
2024-03-10T10:19:26.922Z,18.67
2024-03-10T10:21:56.915Z,21.52
2024-03-10T10:24:23.841Z,18.83
2024-03-10T10:27:01.332Z,19.15
2024-03-10T10:29:29.110Z,19.98
2024-03-10T10:31:57.799Z,18.20
2024-03-10T10:34:24.882Z,20.52
2024-03-10T10:36:55.916Z,18.85
2024-03-10T10:39:30.892Z,19.48
2024-03-10T10:42:02.007Z,18.40
2024-03-10T10:44:30.345Z,18.83
2024-03-10T10:47:00.800Z,20.38
2024-03-10T10:49:30.643Z,18.45
2024-03-10T10:51:58.052Z,18.63
2024-03-10T10:54:25.588Z,20.63
2024-03-10T10:57:01.204Z,20.00
2024-03-10T10:59:29.102Z,19.25
2024-03-10T11:01:59.893Z,20.50
2024-03-10T11:04:30.833Z,21.05
2024-03-10T11:06:59.063Z,20.17
2024-03-10T11:09:32.021Z,22.38
2024-03-10T11:12:00.038Z,21.05
2024-03-10T11:14:28.641Z,18.52
2024-03-10T11:17:17.160Z,20.65
2024-03-10T11:19:52.120Z,20.02
2024-03-10T11:22:21.801Z,19.25
2024-03-10T11:25:10.840Z,20.92
2024-03-10T11:27:46.153Z,20.83
2024-03-10T11:30:39.717Z,20.50
2024-03-10T11:33:08.904Z,18.58
2024-03-10T11:35:36.479Z,20.48
2024-03-10T11:38:05.486Z,19.63
2024-03-10T11:40:32.473Z,21.42
2024-03-10T11:42:59.897Z,21.15
2024-03-10T11:45:26.957Z,22.20
2024-03-10T11:47:57.500Z,20.20
2024-03-10T11:50:24.813Z,20.30
2024-03-10T11:52:59.047Z,21.20
2024-03-10T11:55:26.050Z,19.25
2024-03-10T11:57:54.661Z,20.58
2024-03-10T12:00:27.614Z,23.15
2024-03-10T12:02:55.600Z,22.60
2024-03-10T12:05:23.859Z,20.42
2024-03-10T12:07:55.368Z,20.67
2024-03-10T12:10:25.618Z,22.35
2024-03-10T12:12:52.985Z,22.80
2024-03-10T12:15:22.238Z,22.83
2024-03-10T12:17:53.345Z,21.50
2024-03-10T12:20:21.992Z,21.92
2024-03-10T12:22:49.872Z,21.67
2024-03-10T12:25:19.315Z,19.73
2024-03-10T12:27:48.975Z,20.88
2024-03-10T12:30:16.076Z,22.90
2024-03-10T12:32:51.962Z,21.95
2024-03-10T12:35:23.354Z,20.63
2024-03-10T12:37:51.300Z,23.85
2024-03-10T12:40:18.145Z,20.58
2024-03-10T12:42:48.256Z,20.58
2024-03-10T12:45:17.448Z,22.25
2024-03-10T12:47:45.539Z,23.40
2024-03-10T12:50:14.188Z,21.73
2024-03-10T12:52:41.409Z,26.65
2024-03-10T12:55:11.141Z,24.27
2024-03-10T12:57:41.233Z,23.08
2024-03-10T13:00:26.472Z,22.40
2024-03-10T13:02:56.517Z,21.92
2024-03-10T13:05:24.358Z,23.10
2024-03-10T13:07:51.569Z,18.58
2024-03-10T13:10:18.422Z,18.23
2024-03-10T13:12:45.282Z,18.17
2024-03-10T13:15:12.389Z,18.52
2024-03-10T13:17:42.591Z,19.85
2024-03-10T13:20:17.245Z,19.48
2024-03-10T13:22:45.221Z,22.52
2024-03-10T13:25:12.422Z,21.70
2024-03-10T13:27:46.444Z,21.80
2024-03-10T13:30:15.125Z,21.60
2024-03-10T13:32:42.738Z,20.40
2024-03-10T13:35:10.061Z,21.75
2024-03-10T13:37:37.102Z,23.00
2024-03-10T13:40:06.393Z,19.92
2024-03-10T13:42:33.529Z,23.17
2024-03-10T13:45:00.366Z,25.88
2024-03-10T13:47:27.489Z,24.55
2024-03-10T13:49:55.049Z,26.00
2024-03-10T13:52:21.876Z,25.52
2024-03-10T13:54:57.392Z,24.38
2024-03-10T13:57:24.444Z,23.67
2024-03-10T13:59:53.945Z,27.67
2024-03-10T14:02:20.766Z,24.27
2024-03-10T14:04:48.331Z,24.98
2024-03-10T14:07:15.871Z,26.02
2024-03-10T14:09:46.487Z,23.92
2024-03-10T14:12:14.189Z,26.02
2024-03-10T14:14:42.510Z,27.27
2024-03-10T14:17:09.997Z,27.17
2024-03-10T14:19:39.842Z,26.17
2024-03-10T14:22:06.761Z,25.45
2024-03-10T14:24:33.653Z,27.42
2024-03-10T14:27:01.027Z,26.17
2024-03-10T14:29:28.082Z,27.20
2024-03-10T14:31:56.013Z,28.30
2024-03-10T14:34:22.870Z,26.35
2024-03-10T14:36:51.527Z,27.27
2024-03-10T14:39:18.398Z,26.70
2024-03-10T14:41:45.477Z,26.27
2024-03-10T14:44:12.563Z,26.42
2024-03-10T14:46:39.318Z,28.52
2024-03-10T14:49:09.241Z,26.35
2024-03-10T14:51:37.134Z,26.30
2024-03-10T14:54:04.527Z,29.20
2024-03-10T14:56:31.369Z,30.17
2024-03-10T14:58:58.200Z,28.30
2024-03-10T15:01:29.031Z,28.23
2024-03-10T15:03:58.285Z,26.55
2024-03-10T15:06:27.047Z,31.13
2024-03-10T15:08:59.056Z,28.50
2024-03-10T15:11:25.981Z,27.75
2024-03-10T15:13:53.331Z,26.50
2024-03-10T15:16:22.019Z,27.45
2024-03-10T15:18:48.936Z,28.83
2024-03-10T15:21:16.689Z,30.88
2024-03-10T15:23:43.513Z,25.58
2024-03-10T15:26:10.458Z,27.35
2024-03-10T15:28:38.317Z,29.33
2024-03-10T15:31:05.077Z,29.95
2024-03-10T15:33:32.460Z,28.75
2024-03-10T15:36:00.064Z,26.52
2024-03-10T15:38:27.142Z,25.42
2024-03-10T15:40:54.475Z,26.83
2024-03-10T15:43:21.486Z,26.88
2024-03-10T15:45:48.910Z,26.33
2024-03-10T15:48:16.466Z,25.35
2024-03-10T15:50:44.057Z,27.17
2024-03-10T15:53:12.053Z,26.33
2024-03-10T15:55:39.398Z,26.35
2024-03-10T15:58:07.076Z,26.75
2024-03-10T16:00:34.353Z,27.95
2024-03-10T16:03:11.312Z,28.65
2024-03-10T16:05:46.628Z,26.80
2024-03-10T16:08:15.258Z,27.30
2024-03-10T16:10:43.621Z,27.08
2024-03-10T16:13:13.847Z,26.17
2024-03-10T16:15:41.026Z,27.70
2024-03-10T16:18:09.915Z,23.77
2024-03-10T16:20:45.331Z,25.98
2024-03-10T16:23:13.201Z,24.85
2024-03-10T16:25:41.149Z,24.67
2024-03-10T16:28:08.088Z,27.77
2024-03-10T16:30:34.822Z,25.35
2024-03-10T16:33:02.994Z,25.27
2024-03-10T16:35:30.866Z,25.77
2024-03-10T16:37:58.183Z,25.65
2024-03-10T16:40:25.500Z,27.77
2024-03-10T16:42:52.304Z,21.50
2024-03-10T16:45:19.382Z,25.10
2024-03-10T16:47:48.300Z,25.10
2024-03-10T16:50:28.953Z,22.13
2024-03-10T16:52:57.788Z,24.08
2024-03-10T16:55:25.410Z,27.95
2024-03-10T16:57:57.872Z,25.08
2024-03-10T17:00:31.186Z,23.30
2024-03-10T17:02:58.367Z,23.88
2024-03-10T17:05:25.343Z,25.55
2024-03-10T17:07:52.144Z,24.27
2024-03-10T17:10:20.681Z,26.73
2024-03-10T17:12:47.423Z,25.00
2024-03-10T17:15:17.413Z,24.35
2024-03-10T17:17:45.890Z,23.95
2024-03-10T17:20:13.982Z,23.35
2024-03-10T17:22:41.789Z,25.88
2024-03-10T17:25:09.546Z,21.75
2024-03-10T17:27:37.536Z,22.60
2024-03-10T17:30:05.070Z,25.50
2024-03-10T17:32:31.874Z,24.75
2024-03-10T17:34:58.876Z,26.42
2024-03-10T17:37:28.719Z,22.38
2024-03-10T17:39:56.185Z,23.60
2024-03-10T17:42:24.182Z,23.75
2024-03-10T17:44:50.930Z,26.00
2024-03-10T17:47:17.737Z,24.05
2024-03-10T17:49:44.736Z,24.70
2024-03-10T17:52:12.025Z,24.70
2024-03-10T17:54:39.003Z,26.73
2024-03-10T17:57:06.077Z,24.33
2024-03-10T17:59:33.648Z,23.98
2024-03-10T18:02:00.991Z,26.05
2024-03-10T18:04:28.439Z,26.20
2024-03-10T18:06:56.676Z,24.23
2024-03-10T18:09:25.593Z,27.38
2024-03-10T18:11:52.703Z,25.58
2024-03-10T18:14:20.059Z,25.25
2024-03-10T18:16:48.556Z,26.77
2024-03-10T18:19:15.355Z,30.50
2024-03-10T18:21:42.685Z,28.10
2024-03-10T18:24:12.571Z,27.95
2024-03-10T18:26:43.402Z,28.08
2024-03-10T18:29:12.420Z,26.17
2024-03-10T18:31:41.811Z,26.65
2024-03-10T18:34:11.204Z,24.88
2024-03-10T18:36:38.680Z,26.70
2024-03-10T18:39:07.000Z,25.58
2024-03-10T18:41:34.486Z,29.30
2024-03-10T18:44:03.541Z,26.00
2024-03-10T18:46:32.588Z,27.58
2024-03-10T18:48:59.404Z,30.67
2024-03-10T18:51:26.361Z,26.77
2024-03-10T18:53:53.253Z,27.13
2024-03-10T18:56:21.468Z,28.80
2024-03-10T18:58:48.412Z,25.98
2024-03-10T19:01:17.541Z,26.88
2024-03-10T19:03:48.143Z,26.48
2024-03-10T19:06:17.107Z,29.98
2024-03-10T19:08:45.285Z,26.10
2024-03-10T19:11:12.498Z,27.35
2024-03-10T19:13:41.064Z,26.80
2024-03-10T19:16:10.020Z,29.42
2024-03-10T19:18:37.072Z,23.83
2024-03-10T19:21:04.968Z,26.50
2024-03-10T19:23:32.170Z,27.58
2024-03-10T19:26:02.836Z,27.98
2024-03-10T19:28:29.755Z,27.95
2024-03-10T19:30:58.736Z,31.83
2024-03-10T19:33:25.685Z,32.03
2024-03-10T19:35:52.546Z,29.13
2024-03-10T19:38:19.497Z,29.75
2024-03-10T19:40:46.515Z,26.40
2024-03-10T19:43:14.341Z,27.23
2024-03-10T19:45:43.572Z,34.33
2024-03-10T19:48:12.153Z,29.38
2024-03-10T19:50:39.289Z,25.55
2024-03-10T19:53:06.308Z,26.63
2024-03-10T19:55:34.839Z,29.25
2024-03-10T19:58:01.959Z,28.67
2024-03-10T20:00:30.147Z,26.38
2024-03-10T20:02:57.840Z,25.95
2024-03-10T20:05:24.747Z,28.70
2024-03-10T20:07:53.715Z,29.17
2024-03-10T20:10:21.712Z,28.02
2024-03-10T20:12:51.091Z,29.02
2024-03-10T20:15:18.951Z,29.00
2024-03-10T20:17:49.020Z,28.40
2024-03-10T20:20:22.817Z,29.98
2024-03-10T20:22:50.839Z,27.00
2024-03-10T20:25:19.528Z,29.08
2024-03-10T20:27:46.871Z,35.20
2024-03-10T20:30:15.426Z,34.13
2024-03-10T20:32:42.456Z,30.17
2024-03-10T20:35:10.177Z,27.65
2024-03-10T20:37:37.554Z,25.83
2024-03-10T20:40:06.931Z,27.63
2024-03-10T20:42:33.760Z,29.75
2024-03-10T20:45:00.525Z,25.80
2024-03-10T20:47:27.324Z,30.63
2024-03-10T20:49:54.208Z,26.15
2024-03-10T20:52:22.530Z,23.73
2024-03-10T20:54:51.841Z,28.05
2024-03-10T20:57:18.733Z,26.20
2024-03-10T20:59:45.535Z,26.55
2024-03-10T21:02:12.857Z,26.25
2024-03-10T21:04:39.618Z,30.50
2024-03-10T21:07:06.321Z,28.25
2024-03-10T21:09:33.149Z,25.35
2024-03-10T21:12:01.179Z,28.02
2024-03-10T21:14:28.068Z,28.83
2024-03-10T21:16:58.775Z,27.92
2024-03-10T21:19:27.777Z,27.42
2024-03-10T21:21:54.587Z,24.63
2024-03-10T21:24:21.311Z,26.25
2024-03-10T21:26:49.145Z,25.83
2024-03-10T21:29:16.733Z,28.92
2024-03-10T21:31:43.667Z,24.95
2024-03-10T21:34:10.619Z,28.63
2024-03-10T21:36:37.592Z,25.83
2024-03-10T21:39:04.669Z,26.02
2024-03-10T21:41:31.681Z,27.60
2024-03-10T21:43:59.195Z,27.30
2024-03-10T21:46:26.039Z,27.60
2024-03-10T21:48:53.445Z,25.55
2024-03-10T21:51:20.902Z,28.35
2024-03-10T21:53:48.385Z,26.40
2024-03-10T21:56:17.372Z,29.48
2024-03-10T21:58:44.215Z,29.08
2024-03-10T22:01:11.955Z,25.83
2024-03-10T22:03:40.171Z,31.33
2024-03-10T22:06:07.001Z,29.90
2024-03-10T22:08:33.729Z,32.05
2024-03-10T22:11:00.651Z,43.10
2024-03-10T22:13:28.928Z,28.33
2024-03-10T22:15:55.871Z,29.00
2024-03-10T22:20:49.645Z,30.02
2024-03-10T22:23:16.987Z,26.67
2024-03-10T22:25:43.823Z,26.77
2024-03-10T22:28:10.602Z,28.33
2024-03-10T22:30:37.833Z,30.67
2024-03-10T22:33:05.156Z,28.15
2024-03-10T22:35:32.217Z,33.60
2024-03-10T22:37:59.492Z,28.70
2024-03-10T22:40:28.902Z,29.55
2024-03-10T22:42:56.079Z,26.85
2024-03-10T22:45:30.361Z,27.42
2024-03-10T22:48:00.562Z,26.17
2024-03-10T22:50:27.850Z,23.75
2024-03-10T22:52:55.073Z,27.48
2024-03-10T22:55:21.876Z,27.75
2024-03-10T22:57:49.934Z,26.90
2024-03-10T23:00:23.065Z,29.73
2024-03-10T23:02:53.738Z,26.27
2024-03-10T23:05:26.316Z,27.23
2024-03-10T23:07:59.829Z,28.73
2024-03-10T23:10:28.175Z,28.27
2024-03-10T23:12:54.926Z,25.02
2024-03-10T23:15:22.407Z,25.27
2024-03-10T23:17:49.637Z,25.17
2024-03-10T23:20:23.237Z,27.50
2024-03-10T23:22:54.730Z,26.42
2024-03-10T23:25:22.839Z,28.42
2024-03-10T23:27:50.442Z,27.15
2024-03-10T23:30:18.692Z,26.08
2024-03-10T23:32:46.488Z,27.55
2024-03-10T23:35:16.722Z,25.63
2024-03-10T23:37:46.469Z,27.40
2024-03-10T23:40:13.938Z,29.05
2024-03-10T23:42:41.877Z,28.05
2024-03-10T23:45:11.246Z,26.02
2024-03-10T23:47:42.629Z,27.75
2024-03-10T23:50:12.190Z,27.90
2024-03-10T23:52:40.533Z,26.20
2024-03-10T23:55:08.439Z,31.63
2024-03-10T23:57:35.305Z,27.98
